createdAt,value
2018-07-20T00:01:13.116Z,101172.45
2018-07-20T00:03:40.228Z,101173.93
2018-07-20T00:06:07.371Z,101174.17
2018-07-20T00:08:34.546Z,101174.22
2018-07-20T00:11:02.054Z,101169.79
2018-07-20T00:13:29.213Z,101175.42
2018-07-20T00:15:56.496Z,101173.19
2018-07-20T00:18:23.631Z,101172.32
2018-07-20T00:20:50.768Z,101169.17
2018-07-20T00:23:17.938Z,101166.08
2018-07-20T00:25:45.086Z,101161.44
2018-07-20T00:28:12.373Z,101156.19
2018-07-20T00:30:39.524Z,101161.69
2018-07-20T00:33:06.660Z,101158.01
2018-07-20T00:35:33.795Z,101154.37
2018-07-20T00:38:00.972Z,101149.69
2018-07-20T00:40:28.096Z,101154.15
2018-07-20T00:42:55.232Z,101154.34
2018-07-20T00:45:22.468Z,101157.06
2018-07-20T00:47:49.618Z,101155.86
2018-07-20T00:50:16.772Z,101151.97
2018-07-20T00:52:44.688Z,101150.02
2018-07-20T00:55:11.800Z,101143.52
2018-07-20T00:57:38.928Z,101147.14
2018-07-20T01:00:06.485Z,101135.06
2018-07-20T01:02:33.608Z,101136.69
2018-07-20T01:05:00.781Z,101133.93
2018-07-20T01:07:27.960Z,101129.43
2018-07-20T01:09:55.101Z,101132.07
2018-07-20T01:12:22.232Z,101131.06
2018-07-20T01:14:50.101Z,101132.07
2018-07-20T01:17:17.228Z,101129.88
2018-07-20T01:19:44.359Z,101126.86
2018-07-20T01:22:11.589Z,101134.41
2018-07-20T01:24:38.708Z,101138.41
2018-07-20T01:27:05.888Z,101136.30
2018-07-20T01:29:33.140Z,101135.50
2018-07-20T01:32:00.310Z,101132.06
2018-07-20T01:34:27.420Z,101135.64
2018-07-20T01:36:54.596Z,101137.91
2018-07-20T01:39:21.754Z,101135.86
2018-07-20T01:41:48.900Z,101130.19
2018-07-20T01:44:16.188Z,101125.20
2018-07-20T01:46:43.343Z,101133.16
2018-07-20T01:49:10.522Z,101126.23
2018-07-20T01:51:37.772Z,101123.00
2018-07-20T01:54:04.883Z,101127.17
2018-07-20T01:56:32.001Z,101127.77
2018-07-20T01:58:59.172Z,101129.12
2018-07-20T02:01:26.348Z,101126.27
2018-07-20T02:03:54.477Z,101127.93
2018-07-20T02:06:21.654Z,101126.27
2018-07-20T02:08:48.786Z,101132.31
2018-07-20T02:11:15.940Z,101132.44
2018-07-20T02:13:43.267Z,101130.74
2018-07-20T02:16:10.381Z,101131.86
2018-07-20T02:18:37.484Z,101130.92
2018-07-20T02:21:04.656Z,101130.12
2018-07-20T02:23:31.772Z,101133.55
2018-07-20T02:25:58.903Z,101137.38
2018-07-20T02:28:26.183Z,101130.48
2018-07-20T02:30:53.362Z,101136.89
2018-07-20T02:33:20.521Z,101131.16
2018-07-20T02:35:47.738Z,101134.73
2018-07-20T02:38:14.875Z,101128.37
2018-07-20T02:40:42.010Z,101127.95
2018-07-20T02:43:09.185Z,101132.94
2018-07-20T02:45:36.347Z,101132.97
2018-07-20T02:48:03.480Z,101125.47
2018-07-20T02:50:30.648Z,101130.91
2018-07-20T02:52:57.778Z,101121.67
2018-07-20T02:55:24.939Z,101117.78
2018-07-20T02:57:52.109Z,101114.18
2018-07-20T03:00:19.235Z,101106.30
2018-07-20T03:02:46.372Z,101111.13
2018-07-20T03:05:13.596Z,101106.75
2018-07-20T03:07:40.736Z,101106.30
2018-07-20T03:10:07.900Z,101104.14
2018-07-20T03:12:35.065Z,101105.30
2018-07-20T03:15:02.233Z,101102.59
2018-07-20T03:17:29.364Z,101099.33
2018-07-20T03:19:56.613Z,101098.18
2018-07-20T03:22:23.799Z,101098.28
2018-07-20T03:24:50.892Z,101098.77
2018-07-20T03:27:18.088Z,101109.13
2018-07-20T03:29:45.198Z,101105.97
2018-07-20T03:32:13.200Z,101100.66
2018-07-20T03:34:40.414Z,101105.64
2018-07-20T03:37:07.516Z,101105.61
2018-07-20T03:39:34.648Z,101104.42
2018-07-20T03:42:01.993Z,101103.08
2018-07-20T03:44:29.136Z,101099.56
2018-07-20T03:46:56.258Z,101102.11
2018-07-20T03:49:23.412Z,101105.52
2018-07-20T03:51:50.533Z,101104.48
2018-07-20T03:54:17.676Z,101107.60
2018-07-20T03:56:44.843Z,101110.49
2018-07-20T03:59:11.954Z,101108.93
2018-07-20T04:01:39.116Z,101107.58
2018-07-20T04:04:06.372Z,101109.77
2018-07-20T04:06:33.508Z,101104.91
2018-07-20T04:09:00.640Z,101104.00
2018-07-20T04:11:27.788Z,101101.36
2018-07-20T04:13:54.930Z,101098.66
2018-07-20T04:16:22.065Z,101097.67
2018-07-20T04:18:49.251Z,101102.75
2018-07-20T04:21:16.387Z,101097.29
2018-07-20T04:23:43.509Z,101096.47
2018-07-20T04:26:10.787Z,101097.64
2018-07-20T04:28:38.044Z,101102.40
2018-07-20T04:31:05.725Z,101112.37
2018-07-20T04:33:33.085Z,101107.84
2018-07-20T04:36:00.226Z,101106.63
2018-07-20T04:38:27.354Z,101103.69
2018-07-20T04:40:54.510Z,101106.62
2018-07-20T04:43:21.648Z,101101.97
2018-07-20T04:45:49.460Z,101096.70
2018-07-20T04:48:16.652Z,101106.45
2018-07-20T04:50:43.791Z,101103.64
2018-07-20T04:53:10.908Z,101103.59
2018-07-20T04:55:38.125Z,101095.31
2018-07-20T04:58:05.356Z,101097.18
2018-07-20T05:00:32.493Z,101096.64
2018-07-20T05:02:59.664Z,101097.78
2018-07-20T05:05:26.772Z,101096.84
2018-07-20T05:07:53.945Z,101104.47
2018-07-20T05:10:21.223Z,101100.68
2018-07-20T05:12:48.537Z,101093.08
2018-07-20T05:15:15.672Z,101102.42
2018-07-20T05:17:42.825Z,101110.50
2018-07-20T05:20:09.973Z,101107.97
2018-07-20T05:22:37.083Z,101106.12
2018-07-20T05:25:04.321Z,101109.91
2018-07-20T05:27:31.460Z,101102.61
2018-07-20T05:29:58.583Z,101105.34
2018-07-20T05:32:25.824Z,101101.40
2018-07-20T05:34:52.983Z,101097.66
2018-07-20T05:37:20.116Z,101093.92
2018-07-20T05:39:47.319Z,101101.70
2018-07-20T05:42:14.442Z,101102.34
2018-07-20T05:44:42.446Z,101095.98
2018-07-20T05:47:09.684Z,101097.23
2018-07-20T05:49:36.796Z,101103.23
2018-07-20T05:52:03.970Z,101099.93
2018-07-20T05:54:31.148Z,101102.30
2018-07-20T05:56:58.264Z,101096.06
2018-07-20T05:59:25.359Z,101099.87
2018-07-20T06:01:52.624Z,101097.45
2018-07-20T06:04:19.742Z,101085.80
2018-07-20T06:06:46.860Z,101091.14
2018-07-20T06:09:14.036Z,101094.48
2018-07-20T06:11:41.234Z,101080.98
2018-07-20T06:14:08.789Z,101077.83
2018-07-20T06:16:35.997Z,101073.45
2018-07-20T06:19:03.333Z,101075.48
2018-07-20T06:21:30.475Z,101074.52
2018-07-20T06:23:57.675Z,101080.23
2018-07-20T06:26:24.778Z,101086.74
2018-07-20T06:28:51.887Z,101089.00
2018-07-20T06:31:19.147Z,101081.17
2018-07-20T06:33:46.260Z,101085.25
2018-07-20T06:36:13.430Z,101087.89
2018-07-20T06:38:40.687Z,101088.72
2018-07-20T06:41:07.858Z,101087.41
2018-07-20T06:43:35.001Z,101095.66
2018-07-20T06:46:02.207Z,101094.42
2018-07-20T06:48:29.309Z,101092.53
2018-07-20T06:50:56.424Z,101088.55
2018-07-20T06:53:23.568Z,101092.74
2018-07-20T06:55:50.698Z,101084.98
2018-07-20T06:58:17.821Z,101094.87
2018-07-20T07:00:45.061Z,101088.86
2018-07-20T07:03:12.226Z,101090.20
2018-07-20T07:05:39.343Z,101094.55
2018-07-20T07:08:06.598Z,101090.54
2018-07-20T07:10:33.718Z,101092.91
2018-07-20T07:13:00.870Z,101100.05
2018-07-20T07:15:28.020Z,101100.15
2018-07-20T07:17:55.158Z,101103.12
2018-07-20T07:20:22.260Z,101104.53
2018-07-20T07:22:49.431Z,101102.98
2018-07-20T07:25:16.589Z,101103.38
2018-07-20T07:27:43.721Z,101101.81
2018-07-20T07:30:10.900Z,101099.68
2018-07-20T07:32:38.036Z,101104.39
2018-07-20T07:35:05.168Z,101105.89
2018-07-20T07:37:32.480Z,101099.62
2018-07-20T07:39:59.603Z,101106.73
2018-07-20T07:42:26.737Z,101105.66
2018-07-20T07:44:53.928Z,101099.59
2018-07-20T07:47:21.064Z,101104.16
2018-07-20T07:49:48.190Z,101110.39
2018-07-20T07:52:15.374Z,101102.67
2018-07-20T07:54:42.530Z,101105.55
2018-07-20T07:57:10.044Z,101103.41
2018-07-20T07:59:37.237Z,101102.53
2018-07-20T08:02:04.384Z,101105.33
2018-07-20T08:04:31.514Z,101102.74
2018-07-20T08:06:58.799Z,101099.48
2018-07-20T08:09:25.920Z,101105.39
2018-07-20T08:11:53.069Z,101098.23
2018-07-20T08:14:20.594Z,101098.91
2018-07-20T08:16:47.720Z,101091.98
2018-07-20T08:19:14.829Z,101091.77
2018-07-20T08:21:42.002Z,101095.33
2018-07-20T08:24:09.192Z,101089.56
2018-07-20T08:26:36.368Z,101086.04
2018-07-20T08:29:03.690Z,101087.53
2018-07-20T08:31:30.852Z,101081.95
2018-07-20T08:33:57.968Z,101086.20
2018-07-20T08:36:25.220Z,101081.09
2018-07-20T08:38:52.439Z,101085.55
2018-07-20T08:41:20.099Z,101080.80
2018-07-20T08:43:47.308Z,101084.53
2018-07-20T08:46:14.424Z,101082.15
2018-07-20T08:48:41.544Z,101088.24
2018-07-20T08:51:08.804Z,101086.03
2018-07-20T08:53:35.981Z,101079.31
2018-07-20T08:56:03.141Z,101082.02
2018-07-20T08:58:30.304Z,101082.88
2018-07-20T09:00:57.438Z,101079.45
2018-07-20T09:03:24.571Z,101081.78
2018-07-20T09:05:51.899Z,101074.80
2018-07-20T09:08:19.021Z,101074.80
2018-07-20T09:10:46.140Z,101080.54
2018-07-20T09:13:13.316Z,101077.35
2018-07-20T09:15:40.465Z,101071.36
2018-07-20T09:18:07.690Z,101073.48
2018-07-20T09:20:34.990Z,101076.47
2018-07-20T09:23:02.256Z,101069.84
2018-07-20T09:25:29.380Z,101070.96
2018-07-20T09:27:56.534Z,101070.77
2018-07-20T09:30:23.663Z,101065.34
2018-07-20T09:32:50.789Z,101072.23
2018-07-20T09:35:17.981Z,101066.44
2018-07-20T09:37:45.184Z,101080.63
2018-07-20T09:40:12.368Z,101070.61
2018-07-20T09:42:39.540Z,101070.00
2018-07-20T09:45:06.842Z,101067.58
2018-07-20T09:47:33.984Z,101065.78
2018-07-20T09:50:01.189Z,101057.65
2018-07-20T09:52:28.310Z,101057.13
2018-07-20T09:54:55.429Z,101057.73
2018-07-20T09:57:22.614Z,101059.63
2018-07-20T09:59:49.847Z,101061.89
2018-07-20T10:02:16.913Z,101057.78
2018-07-20T10:04:44.060Z,101056.25
2018-07-20T10:07:11.176Z,101052.30
2018-07-20T10:09:38.330Z,101060.48
2018-07-20T10:12:05.728Z,101056.98
2018-07-20T10:14:32.884Z,101056.80
2018-07-20T10:17:00.021Z,101047.78
2018-07-20T10:19:27.159Z,101048.51
2018-07-20T10:21:54.272Z,101050.27
2018-07-20T10:24:21.387Z,101046.66
2018-07-20T10:26:48.576Z,101047.92
2018-07-20T10:29:15.686Z,101044.89
2018-07-20T10:31:42.830Z,101042.33
2018-07-20T10:34:10.013Z,101038.91
2018-07-20T10:36:37.191Z,101029.39
2018-07-20T10:39:06.465Z,101025.84
2018-07-20T10:41:33.728Z,101029.28
2018-07-20T10:44:00.871Z,101025.43
2018-07-20T10:46:28.011Z,101026.00
2018-07-20T10:48:55.147Z,101026.03
2018-07-20T10:51:22.287Z,101022.94
2018-07-20T10:53:49.419Z,101011.45
2018-07-20T10:56:16.688Z,101018.83
2018-07-20T10:58:43.797Z,101014.97
2018-07-20T11:01:10.916Z,101022.33
2018-07-20T11:03:38.076Z,101013.48
2018-07-20T11:06:05.375Z,101018.33
2018-07-20T11:08:32.499Z,101011.88
2018-07-20T11:10:59.676Z,101009.41
2018-07-20T11:13:26.784Z,101016.88
2018-07-20T11:15:53.943Z,101005.53
2018-07-20T11:18:21.131Z,101008.24
2018-07-20T11:20:48.247Z,101002.30
2018-07-20T11:23:15.381Z,101003.50
2018-07-20T11:25:42.527Z,101005.88
2018-07-20T11:28:09.656Z,101003.77
2018-07-20T11:30:36.803Z,100994.14
2018-07-20T11:33:04.057Z,100998.03
2018-07-20T11:35:31.203Z,101001.73
2018-07-20T11:37:58.340Z,100998.52
2018-07-20T11:40:25.576Z,101003.34
2018-07-20T11:42:52.758Z,101004.42
2018-07-20T11:45:19.871Z,101004.98
2018-07-20T11:47:47.126Z,100999.33
2018-07-20T11:50:14.282Z,100998.53
2018-07-20T11:52:41.431Z,100989.70
2018-07-20T11:55:09.599Z,100989.59
2018-07-20T11:57:36.712Z,100982.32
2018-07-20T12:00:04.406Z,100976.44
2018-07-20T12:02:31.582Z,100974.02
2018-07-20T12:04:58.691Z,100971.85
2018-07-20T12:07:25.812Z,100976.64
2018-07-20T12:09:53.058Z,100979.30
2018-07-20T12:12:20.179Z,100964.78
2018-07-20T12:14:47.304Z,100972.20
2018-07-20T12:17:14.511Z,100968.70
2018-07-20T12:19:41.643Z,100966.02
2018-07-20T12:22:09.173Z,100966.50
2018-07-20T12:24:36.356Z,100959.02
2018-07-20T12:27:03.509Z,100969.44
2018-07-20T12:29:30.675Z,100963.43
2018-07-20T12:31:57.913Z,100953.95
2018-07-20T12:34:25.012Z,100960.71
2018-07-20T12:36:52.129Z,100957.02
2018-07-20T12:39:19.348Z,100952.78
2018-07-20T12:41:46.447Z,100950.16
2018-07-20T12:44:14.506Z,100954.75
2018-07-20T12:46:41.715Z,100949.22
2018-07-20T12:49:08.813Z,100950.86
2018-07-20T12:51:36.004Z,100944.28
2018-07-20T12:54:03.293Z,100939.94
2018-07-20T12:56:30.424Z,100943.62
2018-07-20T12:58:57.604Z,100943.59
2018-07-20T13:01:24.841Z,100932.42
2018-07-20T13:03:51.960Z,100934.87
2018-07-20T13:06:19.068Z,100942.19
2018-07-20T13:08:46.307Z,100933.16
2018-07-20T13:11:13.495Z,100935.89
2018-07-20T13:13:40.688Z,100932.52
2018-07-20T13:16:07.959Z,100929.88
2018-07-20T13:18:35.120Z,100924.41
2018-07-20T13:21:02.250Z,100930.66
2018-07-20T13:23:29.436Z,100921.80
2018-07-20T13:25:56.575Z,100918.56
2018-07-20T13:28:23.715Z,100913.58
2018-07-20T13:30:50.957Z,100912.66
2018-07-20T13:33:18.099Z,100916.95
2018-07-20T13:35:45.224Z,100911.13
2018-07-20T13:38:12.438Z,100916.74
2018-07-20T13:40:39.577Z,100913.00
2018-07-20T13:43:06.735Z,100905.57
2018-07-20T13:45:34.025Z,100903.23
2018-07-20T13:48:01.142Z,100899.67
2018-07-20T13:50:28.303Z,100893.55
2018-07-20T13:52:55.588Z,100888.49
2018-07-20T13:55:22.666Z,100890.65
2018-07-20T13:57:49.792Z,100881.72
2018-07-20T14:00:17.787Z,100876.18
2018-07-20T14:02:44.909Z,100880.75
2018-07-20T14:05:12.017Z,100872.97
2018-07-20T14:07:39.172Z,100881.37
2018-07-20T14:10:06.377Z,100871.95
2018-07-20T14:12:33.489Z,100869.69
2018-07-20T14:15:00.766Z,100867.03
2018-07-20T14:17:27.949Z,100867.73
2018-07-20T14:19:55.065Z,100863.17
2018-07-20T14:22:22.297Z,100863.89
2018-07-20T14:24:49.483Z,100859.36
2018-07-20T14:27:16.626Z,100859.36
2018-07-20T14:29:43.911Z,100852.30
2018-07-20T14:32:11.060Z,100850.55
2018-07-20T14:34:38.177Z,100847.25
2018-07-20T14:37:06.056Z,100850.66
2018-07-20T14:39:33.210Z,100845.48
2018-07-20T14:42:00.376Z,100839.89
2018-07-20T14:44:27.662Z,100841.22
2018-07-20T14:46:54.831Z,100838.09
2018-07-20T14:49:21.969Z,100836.97
2018-07-20T14:51:49.154Z,100838.48
2018-07-20T14:54:16.324Z,100845.42
2018-07-20T14:56:43.451Z,100842.52
2018-07-20T14:59:10.644Z,100841.47
2018-07-20T15:01:37.819Z,100833.28
2018-07-20T15:04:05.239Z,100830.89
2018-07-20T15:06:32.498Z,100836.58
2018-07-20T15:08:59.637Z,100831.95
2018-07-20T15:11:26.777Z,100830.61
2018-07-20T15:13:54.016Z,100830.86
2018-07-20T15:16:21.144Z,100832.03
2018-07-20T15:18:48.268Z,100825.89
2018-07-20T15:21:15.504Z,100816.84
2018-07-20T15:23:42.665Z,100817.97
2018-07-20T15:26:09.829Z,100819.48
2018-07-20T15:28:37.085Z,100811.55
2018-07-20T15:31:04.214Z,100812.78
2018-07-20T15:33:31.333Z,100807.53
2018-07-20T15:35:58.636Z,100808.27
2018-07-20T15:38:25.757Z,100799.63
2018-07-20T15:40:52.867Z,100800.53
2018-07-20T15:43:20.084Z,100803.06
2018-07-20T15:45:52.038Z,100801.18
2018-07-20T15:48:14.393Z,100799.08
2018-07-20T15:50:41.680Z,100800.20
2018-07-20T15:53:37.678Z,100793.13
2018-07-20T15:55:36.021Z,100797.62
2018-07-20T15:58:03.246Z,100794.96
2018-07-20T16:00:30.368Z,100790.52
2018-07-20T16:02:57.692Z,100795.62
2018-07-20T16:05:25.013Z,100798.99
2018-07-20T16:07:52.152Z,100790.13
2018-07-20T16:10:19.306Z,100785.34
2018-07-20T16:12:46.544Z,100782.76
2018-07-20T16:15:13.720Z,100779.75
2018-07-20T16:17:40.816Z,100772.51
2018-07-20T16:20:08.117Z,100777.48
2018-07-20T16:22:35.265Z,100778.58
2018-07-20T16:25:02.471Z,100766.30
2018-07-20T16:27:29.653Z,100773.19
2018-07-20T16:29:56.743Z,100766.95
2018-07-20T16:32:23.879Z,100765.64
2018-07-20T16:34:51.050Z,100765.03
2018-07-20T16:37:18.189Z,100763.59
2018-07-20T16:39:45.336Z,100765.08
2018-07-20T16:42:12.576Z,100758.72
2018-07-20T16:44:39.782Z,100760.52
2018-07-20T16:47:06.964Z,100757.11
2018-07-20T16:49:34.258Z,100766.72
2018-07-20T16:52:01.420Z,100761.02
2018-07-20T16:54:28.551Z,100764.95
2018-07-20T16:56:55.808Z,100762.05
2018-07-20T16:59:22.952Z,100764.30
2018-07-20T17:01:50.102Z,100766.34
2018-07-20T17:04:17.289Z,100765.77
2018-07-20T17:06:44.427Z,100767.20
2018-07-20T17:09:12.220Z,100765.25
2018-07-20T17:11:39.593Z,100763.05
2018-07-20T17:14:06.817Z,100767.17
2018-07-20T17:16:33.969Z,100765.78
2018-07-20T17:19:01.243Z,100766.20
2018-07-20T17:21:28.360Z,100770.97
2018-07-20T17:23:55.473Z,100769.89
2018-07-20T17:26:22.924Z,100769.97
2018-07-20T17:28:50.060Z,100768.27
2018-07-20T17:31:17.168Z,100772.30
2018-07-20T17:33:44.320Z,100766.47
2018-07-20T17:36:11.477Z,100772.59
2018-07-20T17:38:38.628Z,100774.28
2018-07-20T17:41:06.224Z,100772.74
2018-07-20T17:43:33.364Z,100780.54
2018-07-20T17:46:00.464Z,100770.44
2018-07-20T17:48:27.688Z,100770.46
2018-07-20T17:50:54.852Z,100774.81
2018-07-20T17:53:22.147Z,100770.84
2018-07-20T17:55:49.350Z,100775.45
2018-07-20T17:58:16.514Z,100775.50
2018-07-20T18:00:43.702Z,100776.78
2018-07-20T18:03:11.028Z,100777.86
2018-07-20T18:05:38.148Z,100774.26
2018-07-20T18:08:05.270Z,100766.95
2018-07-20T18:10:32.503Z,100767.02
2018-07-20T18:12:59.597Z,100769.34
2018-07-20T18:15:26.752Z,100773.05
2018-07-20T18:17:54.135Z,100768.41
2018-07-20T18:20:21.289Z,100778.77
2018-07-20T18:22:48.430Z,100768.87
2018-07-20T18:25:15.763Z,100773.22
2018-07-20T18:27:42.968Z,100768.67
2018-07-20T18:30:10.107Z,100768.71
2018-07-20T18:32:37.334Z,100771.70
2018-07-20T18:35:04.553Z,100763.58
2018-07-20T18:37:31.689Z,100764.59
2018-07-20T18:39:58.856Z,100766.06
2018-07-20T18:42:25.974Z,100761.59
2018-07-20T18:44:53.116Z,100762.67
2018-07-20T18:47:20.375Z,100765.61
2018-07-20T18:49:47.528Z,100765.86
2018-07-20T18:52:14.714Z,100761.11
2018-07-20T18:54:41.975Z,100765.28
2018-07-20T18:57:09.352Z,100767.22
2018-07-20T18:59:36.543Z,100769.62
2018-07-20T19:02:03.736Z,100770.06
2018-07-20T19:04:30.888Z,100771.97
2018-07-20T19:06:58.024Z,100772.84
2018-07-20T19:09:25.262Z,100764.59
2018-07-20T19:11:52.375Z,100770.26
2018-07-20T19:14:19.481Z,100765.39
2018-07-20T19:16:46.724Z,100774.75
2018-07-20T19:19:13.848Z,100775.75
2018-07-20T19:21:41.037Z,100780.19
2018-07-20T19:24:08.282Z,100778.42
2018-07-20T19:26:35.413Z,100778.47
2018-07-20T19:29:02.549Z,100774.75
2018-07-20T19:31:29.715Z,100781.60
2018-07-20T19:33:56.864Z,100783.54
2018-07-20T19:36:23.991Z,100786.27
2018-07-20T19:38:51.144Z,100793.34
2018-07-20T19:41:18.269Z,100793.72
2018-07-20T19:43:45.444Z,100802.72
2018-07-20T19:46:12.612Z,100800.33
2018-07-20T19:48:39.739Z,100801.09
2018-07-20T19:51:06.858Z,100800.12
2018-07-20T19:53:34.185Z,100805.46
2018-07-20T19:56:01.343Z,100799.23
2018-07-20T19:58:28.677Z,100802.37
2018-07-20T20:00:55.916Z,100809.80
2018-07-20T20:03:23.045Z,100808.15
2018-07-20T20:05:50.249Z,100805.69
2018-07-20T20:08:17.423Z,100805.84
2018-07-20T20:10:44.560Z,100807.31
2018-07-20T20:13:11.691Z,100809.66
2018-07-20T20:15:38.918Z,100808.84
2018-07-20T20:18:06.151Z,100811.30
2018-07-20T20:20:33.286Z,100817.17
2018-07-20T20:23:00.460Z,100817.14
2018-07-20T20:25:27.601Z,100821.27
2018-07-20T20:27:54.716Z,100824.02
2018-07-20T20:30:21.973Z,100819.78
2018-07-20T20:32:49.100Z,100828.05
2018-07-20T20:35:16.231Z,100826.95
2018-07-20T20:37:43.561Z,100831.53
2018-07-20T20:40:10.693Z,100834.00
2018-07-20T20:42:37.831Z,100830.12
2018-07-20T20:45:06.068Z,100831.59
2018-07-20T20:47:33.852Z,100825.87
2018-07-20T20:50:01.342Z,100835.27
2018-07-20T20:52:28.536Z,100839.34
2018-07-20T20:54:55.741Z,100842.16
2018-07-20T20:57:22.857Z,100842.41
2018-07-20T20:59:50.111Z,100845.78
2018-07-20T21:02:17.212Z,100842.75
2018-07-20T21:04:44.353Z,100841.44
2018-07-20T21:07:11.529Z,100834.69
2018-07-20T21:09:38.686Z,100840.34
2018-07-20T21:12:06.110Z,100839.16
2018-07-20T21:14:33.175Z,100839.56
2018-07-20T21:17:00.303Z,100843.87
2018-07-20T21:19:27.435Z,100842.59
2018-07-20T21:21:54.620Z,100838.34
2018-07-20T21:24:21.740Z,100842.19
2018-07-20T21:26:48.859Z,100838.73
2018-07-20T21:29:16.017Z,100842.09
2018-07-20T21:31:43.153Z,100840.91
2018-07-20T21:34:10.288Z,100846.00
2018-07-20T21:36:37.524Z,100832.12
2018-07-20T21:39:07.472Z,100837.82
2018-07-20T21:41:34.605Z,100835.86
2018-07-20T21:44:01.775Z,100838.80
2018-07-20T21:46:28.893Z,100843.48
2018-07-20T21:48:56.565Z,100849.80
2018-07-20T21:51:23.819Z,100851.03
2018-07-20T21:53:50.947Z,100854.86
2018-07-20T21:56:18.150Z,100852.46
2018-07-20T21:58:45.293Z,100844.85
2018-07-20T22:01:12.456Z,100838.48
2018-07-20T22:03:39.598Z,100848.14
2018-07-20T22:06:06.988Z,100849.07
2018-07-20T22:08:34.107Z,100852.66
2018-07-20T22:11:01.244Z,100860.39
2018-07-20T22:13:28.436Z,100858.02
2018-07-20T22:15:55.580Z,100853.99
2018-07-20T22:18:22.705Z,100852.16
2018-07-20T22:20:49.929Z,100852.10
2018-07-20T22:23:17.072Z,100846.16
2018-07-20T22:25:44.233Z,100851.19
2018-07-20T22:28:11.431Z,100843.97
2018-07-20T22:30:38.561Z,100838.78
2018-07-20T22:33:05.707Z,100832.44
2018-07-20T22:35:33.948Z,100838.14
2018-07-20T22:38:01.105Z,100840.91
2018-07-20T22:40:28.260Z,100838.61
2018-07-20T22:42:55.391Z,100836.08
2018-07-20T22:45:22.497Z,100836.20
2018-07-20T22:47:49.622Z,100827.70
2018-07-20T22:50:16.808Z,100825.15
2018-07-20T22:52:43.924Z,100828.56
2018-07-20T22:55:11.069Z,100820.77
2018-07-20T22:57:38.408Z,100817.11
2018-07-20T23:00:05.616Z,100812.73
2018-07-20T23:02:32.733Z,100815.47
2018-07-20T23:04:59.989Z,100817.72
2018-07-20T23:07:27.096Z,100818.73
2018-07-20T23:09:54.199Z,100810.23
2018-07-20T23:12:21.808Z,100815.28
2018-07-20T23:14:48.914Z,100813.09
2018-07-20T23:17:16.038Z,100809.75
2018-07-20T23:19:43.201Z,100809.29
2018-07-20T23:22:10.306Z,100807.09
2018-07-20T23:24:37.456Z,100806.39
2018-07-20T23:27:04.726Z,100806.44
2018-07-20T23:29:31.948Z,100817.45
2018-07-20T23:31:58.988Z,100817.63
2018-07-20T23:34:26.953Z,100812.41
2018-07-20T23:36:54.069Z,100816.85
2018-07-20T23:39:21.212Z,100812.67
2018-07-20T23:41:48.360Z,100810.22
2018-07-20T23:44:15.448Z,100811.67
2018-07-20T23:46:42.605Z,100808.16
2018-07-20T23:49:09.763Z,100811.47
2018-07-20T23:51:36.893Z,100810.66
2018-07-20T23:54:04.028Z,100813.77
2018-07-20T23:56:31.205Z,100817.86
2018-07-20T23:58:58.385Z,100811.91
